»·PEaware :: QXE796 O22-KPRB

QXE796 :: O22-KPRB

FLIGHT INFORMATION

Flight Status: Arrived
Operator:
Horizon Air
More flights by this operator :: More flights under this callsign
Pilot: Kris A. (796)
Aircraft: DEHAVILLAND DASH 8 400
(DH8D)
More flights by this aircraft type
Origin: O22 Columbia
United States
Destination: KPRB Paso Robles Mun
United States
More flights between these airports :: More routes between these airports
Route: FICHU GONAQ HABXU V244 WRAPS V244 ECA V113 PRB
File this flight plan on PilotEdge
Remarks:
Altitude:
(Current/Filed)
16,500ft
Speed:
(Current/Filed)
280kts
Departed: 23-Nov-16 04:59 PM
Arrived: 23-Nov-16 05:37 PM
Distance/Time
Traveled:
142nm/0:38
Distance/Time
To Go:
Arrived

Flight Plot

Page will automatically refresh every two minutes.

Flight plan parsing failed; only flown route is shown


Map Options




Map Legend


Flown Route
Filed Route
Departure Airport
Arrival Airport
Navaid (VOR, NDB)
Fix

Horizontal Profiles

Position Reports

Time Latitude Longitude Heading Altitude Ground
Speed
23-Nov-16 16:42 38.029699 -120.411359 347 2125ft 0kts
23-Nov-16 16:43 38.029699 -120.411359 347 2125ft 0kts
23-Nov-16 16:44 38.029699 -120.411359 347 2125ft 0kts
23-Nov-16 16:45 38.029699 -120.411359 347 2125ft 0kts
23-Nov-16 16:46 38.029699 -120.411359 347 2125ft 0kts
23-Nov-16 16:47 38.029699 -120.411359 347 2125ft 0kts
23-Nov-16 16:48 38.029887 -120.411683 290 2125ft 9kts
23-Nov-16 16:49 38.033828 -120.411395 10 2125ft 20kts
23-Nov-16 16:50 38.036317 -120.410864 330 2125ft 9kts
23-Nov-16 16:51 38.035453 -120.411895 190 2125ft 0kts
23-Nov-16 16:52 38.031525 -120.412821 189 2126ft 95kts
23-Nov-16 16:53 37.990453 -120.421836 189 4118ft 178kts
23-Nov-16 16:54 37.933941 -120.435235 188 6826ft 219kts
23-Nov-16 16:55 37.883684 -120.474229 248 9911ft 228kts
23-Nov-16 16:56 37.871713 -120.549351 269 13034ft 209kts
23-Nov-16 16:57 37.867305 -120.623598 272 15003ft 213kts
23-Nov-16 16:58 37.863019 -120.699653 272 16401ft 227kts
23-Nov-16 16:59 37.858016 -120.786036 271 16487ft 258kts
23-Nov-16 17:00 37.852215 -120.879265 271 16504ft 271kts
23-Nov-16 17:01 37.846175 -120.975007 270 16505ft 277kts
23-Nov-16 17:02 37.837450 -121.072649 253 16500ft 290kts
23-Nov-16 17:03 37.771143 -121.138172 196 16506ft 335kts
23-Nov-16 17:04 37.676278 -121.116588 168 16505ft 355kts
23-Nov-16 17:05 37.581341 -121.081469 169 16501ft 355kts
23-Nov-16 17:06 37.485982 -121.047992 169 16500ft 356kts
23-Nov-16 17:07 37.391086 -121.014611 169 16499ft 356kts
23-Nov-16 17:08 37.295690 -120.980963 169 16501ft 356kts
23-Nov-16 17:09 37.200533 -120.947547 169 16503ft 354kts
23-Nov-16 17:10 37.105877 -120.914391 169 16498ft 352kts
23-Nov-16 17:11 37.011670 -120.881595 169 16498ft 352kts
23-Nov-16 17:12 36.917123 -120.848692 169 16500ft 352kts
23-Nov-16 17:13 36.822872 -120.815908 169 16502ft 352kts
23-Nov-16 17:14 36.728516 -120.783149 169 16502ft 352kts
23-Nov-16 17:15 36.633002 -120.761534 178 16502ft 348kts
23-Nov-16 17:16 36.537737 -120.743591 177 16335ft 337kts
23-Nov-16 17:17 36.446825 -120.725660 176 14368ft 328kts
23-Nov-16 17:18 36.357785 -120.708235 175 12380ft 321kts
23-Nov-16 17:19 36.269814 -120.691145 173 10558ft 306kts
23-Nov-16 17:20 36.188122 -120.675373 170 8860ft 288kts
23-Nov-16 17:21 36.111744 -120.661904 174 7161ft 265kts
23-Nov-16 17:22 36.041121 -120.656745 175 6035ft 246kts
23-Nov-16 17:23 35.973129 -120.651517 174 6006ft 246kts
23-Nov-16 17:24 35.904675 -120.639727 164 5947ft 248kts
23-Nov-16 17:25 35.838657 -120.619617 164 4805ft 229kts
23-Nov-16 17:26 35.788634 -120.605260 169 3266ft 164kts
23-Nov-16 17:27 35.748337 -120.596232 170 2829ft 179kts
23-Nov-16 17:28 35.705753 -120.608561 214 1632ft 153kts
23-Nov-16 17:29 35.673538 -120.630612 207 843ft 53kts
23-Nov-16 17:30 35.669969 -120.636098 270 843ft 15kts
23-Nov-16 17:31 35.671580 -120.637348 188 843ft 0kts
23-Nov-16 17:32 35.671580 -120.637348 188 843ft 0kts
23-Nov-16 17:33 35.671580 -120.637348 188 843ft 0kts
23-Nov-16 17:34 35.671580 -120.637348 188 843ft 0kts

Navigation Log

Ident Type
Flight plan parsing failed, navigation log unavailable